Time;durP1;ratioP1;P1;durP2;ratioP2;P2;SDS_P1;SDS_P2;PMS_P1;PMS_P2;Temp;Humidity;BMP_temperature;BMP_pressure;BME280_temperature;BME280_humidity;BME280_pressure;Samples;Min_cycle;Max_cycle;Signal;HPM_P1;HPM_P2
2021/04/01 00:01:39;;;;;;;34.03;17.67;;;19.90;54.40;;;;;;4930483;29;20222;-88
2021/04/01 00:04:05;;;;;;;31.37;17.10;;;19.90;54.50;;;;;;4937675;29;20182;-87
2021/04/01 00:06:31;;;;;;;38.73;17.93;;;20.00;54.50;;;;;;4943741;29;20185;-90
2021/04/01 00:08:56;;;;;;;35.30;17.60;;;19.90;54.40;;;;;;4943769;29;20206;-88
2021/04/01 00:11:23;;;;;;;29.60;17.10;;;20.10;54.10;;;;;;4941016;29;20243;-88
2021/04/01 00:13:48;;;;;;;36.43;17.43;;;19.80;54.90;;;;;;4930604;29;20191;-87
2021/04/01 00:16:17;;;;;;;33.03;17.93;;;19.60;55.10;;;;;;4931893;29;21009;-88
2021/04/01 00:18:42;;;;;;;30.13;17.03;;;19.50;55.30;;;;;;4949142;29;20182;-88
2021/04/01 00:21:08;;;;;;;30.73;17.30;;;19.40;55.90;;;;;;4949207;29;20635;-88
2021/04/01 00:23:33;;;;;;;30.93;16.03;;;19.50;55.70;;;;;;4949447;29;20280;-88
2021/04/01 00:25:59;;;;;;;31.30;17.27;;;19.40;56.10;;;;;;4934872;29;20191;-87
2021/04/01 00:28:25;;;;;;;29.33;17.20;;;19.30;56.50;;;;;;4929404;29;20227;-89
2021/04/01 00:30:50;;;;;;;30.63;17.33;;;19.30;56.50;;;;;;4941522;29;20249;-89
2021/04/01 00:33:16;;;;;;;31.10;16.67;;;19.40;55.90;;;;;;4946677;29;20192;-90
2021/04/01 00:35:41;;;;;;;29.90;17.33;;;19.40;55.40;;;;;;4934196;29;20705;-88
2021/04/01 00:38:07;;;;;;;27.23;16.57;;;19.60;55.50;;;;;;4948773;29;20182;-88
2021/04/01 00:40:33;;;;;;;33.63;16.27;;;19.60;54.90;;;;;;4948317;29;20196;-88
2021/04/01 00:42:58;;;;;;;33.00;16.80;;;19.70;55.10;;;;;;4941396;29;20661;-88
2021/04/01 00:45:24;;;;;;;35.03;17.53;;;20.00;54.00;;;;;;4922836;29;20198;-88
2021/04/01 00:47:52;;;;;;;30.97;16.73;;;20.00;54.20;;;;;;4920256;29;20182;-88
2021/04/01 00:50:24;;;;;;;27.23;16.03;;;20.00;54.80;;;;;;4935700;29;20218;-88
2021/04/01 00:52:50;;;;;;;30.60;16.30;;;19.60;55.70;;;;;;4939556;29;20189;-88
2021/04/01 00:55:16;;;;;;;27.23;15.90;;;19.30;56.00;;;;;;4938557;28;20186;-87
2021/04/01 00:57:45;;;;;;;29.03;15.93;;;19.40;55.50;;;;;;4938956;29;20216;-88
2021/04/01 01:00:14;;;;;;;29.67;15.50;;;19.50;56.10;;;;;;4925352;29;20185;-91
2021/04/01 01:02:40;;;;;;;33.27;17.07;;;19.50;56.00;;;;;;4932423;29;20248;-90
2021/04/01 01:05:09;;;;;;;30.10;16.53;;;19.30;56.70;;;;;;4937469;29;20188;-88
2021/04/01 01:07:35;;;;;;;32.80;16.23;;;19.10;56.80;;;;;;4939445;29;20197;-91
2021/04/01 01:10:06;;;;;;;30.40;16.47;;;19.20;57.00;;;;;;4937778;29;20233;-93
2021/04/01 01:12:31;;;;;;;31.17;16.57;;;19.30;56.80;;;;;;4938904;29;20193;-92
2021/04/01 01:14:57;;;;;;;37.00;16.83;;;19.20;57.80;;;;;;4924345;29;20285;-93
2021/04/01 01:17:23;;;;;;;30.43;17.07;;;19.10;57.70;;;;;;4919846;29;20605;-90
2021/04/01 01:19:53;;;;;;;28.83;16.00;;;19.00;57.90;;;;;;4931515;29;20189;-90
2021/04/01 01:22:21;;;;;;;30.13;15.93;;;19.10;57.50;;;;;;4938747;29;20185;-89
2021/04/01 01:24:47;;;;;;;33.07;17.27;;;19.00;57.90;;;;;;4935464;28;20193;-89
2021/04/01 01:27:13;;;;;;;27.03;15.57;;;18.90;58.70;;;;;;4938831;29;20188;-90
2021/04/01 01:29:40;;;;;;;30.43;16.10;;;18.80;58.70;;;;;;4928343;29;20583;-88
2021/04/01 01:32:07;;;;;;;31.70;15.70;;;18.80;58.90;;;;;;4928454;29;20285;-88
2021/04/01 01:34:36;;;;;;;25.50;15.53;;;18.80;59.10;;;;;;4929911;29;20707;-93
2021/04/01 01:37:05;;;;;;;28.40;16.40;;;18.90;59.00;;;;;;4931277;29;20186;-90
2021/04/01 01:39:30;;;;;;;29.60;17.27;;;19.00;58.90;;;;;;4930322;29;20730;-91
2021/04/01 01:41:56;;;;;;;30.33;16.90;;;19.20;58.60;;;;;;4919412;29;20220;-92
2021/04/01 01:44:22;;;;;;;31.00;15.97;;;19.10;58.70;;;;;;4928720;29;20206;-92
2021/04/01 01:46:48;;;;;;;30.80;16.17;;;18.90;59.40;;;;;;4942242;29;20184;-92
2021/04/01 01:49:13;;;;;;;29.00;16.73;;;18.60;59.60;;;;;;4927580;29;20205;-92
2021/04/01 01:51:39;;;;;;;26.73;16.63;;;18.50;60.10;;;;;;4924222;29;20186;-91
2021/04/01 01:54:05;;;;;;;26.93;15.37;;;18.30;61.30;;;;;;4932304;29;20180;-93
2021/04/01 01:56:32;;;;;;;35.57;16.73;;;18.60;60.20;;;;;;4941893;29;20179;-89
2021/04/01 01:58:59;;;;;;;33.63;15.80;;;18.70;59.90;;;;;;4939809;29;20176;-88
2021/04/01 02:01:26;;;;;;;27.63;15.73;;;18.80;59.80;;;;;;4941142;29;20582;-90
2021/04/01 02:03:52;;;;;;;26.67;15.40;;;18.60;59.60;;;;;;4934136;29;20291;-90
2021/04/01 02:06:21;;;;;;;24.17;16.33;;;18.50;59.80;;;;;;4936308;29;20178;-89
2021/04/01 02:08:48;;;;;;;31.73;16.20;;;18.60;59.80;;;;;;4929751;29;20199;-90
2021/04/01 02:11:17;;;;;;;26.23;15.70;;;18.60;60.00;;;;;;4931195;29;20307;-89
2021/04/01 02:13:43;;;;;;;25.97;16.50;;;18.60;60.40;;;;;;4940894;29;20184;-89
2021/04/01 02:16:10;;;;;;;25.07;16.37;;;18.50;60.80;;;;;;4941536;29;20212;-89
2021/04/01 02:18:37;;;;;;;30.10;16.23;;;18.40;61.40;;;;;;4941167;28;20180;-89
2021/04/01 02:21:03;;;;;;;29.07;17.03;;;18.50;61.10;;;;;;4941582;29;20226;-89
2021/04/01 02:23:32;;;;;;;26.67;16.27;;;18.30;61.20;;;;;;4941399;29;20177;-89
2021/04/01 02:25:59;;;;;;;25.37;15.90;;;18.40;60.70;;;;;;4941445;29;20176;-89
2021/04/01 02:28:27;;;;;;;29.67;15.73;;;18.50;60.80;;;;;;4940487;29;20641;-90
2021/04/01 02:30:55;;;;;;;27.60;15.50;;;18.50;61.30;;;;;;4940498;29;20215;-89
2021/04/01 02:33:26;;;;;;;28.53;16.57;;;18.20;61.70;;;;;;4937333;29;20207;-88
2021/04/01 02:35:53;;;;;;;29.27;15.90;;;18.10;62.70;;;;;;4922257;29;20186;-89
2021/04/01 02:38:19;;;;;;;26.83;15.57;;;18.00;63.00;;;;;;4924925;29;20208;-90
2021/04/01 02:40:45;;;;;;;24.63;15.50;;;18.00;62.80;;;;;;4940913;29;20196;-89
2021/04/01 02:43:13;;;;;;;28.90;15.20;;;18.00;63.30;;;;;;4940961;29;20172;-89
2021/04/01 02:45:39;;;;;;;22.73;15.23;;;17.80;63.70;;;;;;4940641;29;20175;-89
2021/04/01 02:48:05;;;;;;;28.00;16.60;;;17.80;63.90;;;;;;4934681;29;20251;-89
2021/04/01 02:50:31;;;;;;;33.13;16.47;;;18.00;63.10;;;;;;4921714;29;20226;-89
2021/04/01 02:52:57;;;;;;;27.90;15.63;;;18.10;62.90;;;;;;4930588;29;20258;-89
2021/04/01 02:55:22;;;;;;;29.00;15.10;;;17.90;63.30;;;;;;4940703;29;20239;-89
2021/04/01 02:57:49;;;;;;;26.00;15.40;;;18.00;63.50;;;;;;4934557;29;20184;-89
2021/04/01 03:00:22;;;;;;;31.00;15.07;;;17.90;63.60;;;;;;4937595;29;20173;-90
2021/04/01 03:02:56;;;;;;;28.57;15.10;;;17.80;63.90;;;;;;4930803;29;20215;-89
2021/04/01 03:05:22;;;;;;;25.87;14.40;;;17.90;63.70;;;;;;4932318;29;20243;-89
2021/04/01 03:07:48;;;;;;;28.53;15.37;;;17.90;63.90;;;;;;4934167;29;20185;-89
2021/04/01 03:10:14;;;;;;;31.10;15.93;;;18.00;63.40;;;;;;4940576;29;20227;-89
2021/04/01 03:12:40;;;;;;;28.80;15.37;;;17.90;63.70;;;;;;4939794;29;20187;-91
2021/04/01 03:15:08;;;;;;;28.27;15.10;;;17.80;64.30;;;;;;4922088;29;20200;-90
2021/04/01 03:17:34;;;;;;;31.87;15.20;;;17.90;64.20;;;;;;4936922;29;20191;-91
2021/04/01 03:20:00;;;;;;;29.70;15.83;;;18.00;63.40;;;;;;4929981;29;20548;-93
2021/04/01 03:22:26;;;;;;;31.43;15.67;;;18.00;63.60;;;;;;4921608;29;20187;-94
2021/04/01 03:24:52;;;;;;;29.67;16.17;;;17.80;64.60;;;;;;4930344;29;20206;-93
2021/04/01 03:27:18;;;;;;;29.73;16.07;;;17.70;65.10;;;;;;4940337;29;20267;-90
2021/04/01 03:29:43;;;;;;;29.13;16.70;;;17.60;64.70;;;;;;4939684;28;20213;-90
2021/04/01 03:32:09;;;;;;;30.47;16.03;;;17.70;64.90;;;;;;4941004;29;20217;-92
2021/04/01 03:34:34;;;;;;;33.53;16.80;;;17.70;64.50;;;;;;4940164;29;20214;-92
2021/04/01 03:37:00;;;;;;;30.30;17.43;;;17.70;64.50;;;;;;4941055;29;20194;-93
2021/04/01 03:39:26;;;;;;;31.43;17.27;;;17.60;64.90;;;;;;4937339;29;20671;-92
2021/04/01 03:41:52;;;;;;;31.40;18.43;;;17.60;63.80;;;;;;4921843;29;20184;-92
2021/04/01 03:44:17;;;;;;;33.47;19.33;;;17.60;63.10;;;;;;4923121;29;20550;-88
2021/04/01 03:46:43;;;;;;;28.93;16.80;;;17.70;63.00;;;;;;4940457;29;20187;-88
2021/04/01 03:49:09;;;;;;;32.40;16.87;;;17.60;65.00;;;;;;4940079;29;20183;-89
2021/04/01 03:51:34;;;;;;;29.60;17.73;;;17.50;65.20;;;;;;4926993;29;20702;-90
2021/04/01 03:54:00;;;;;;;26.50;16.70;;;17.40;65.80;;;;;;4939756;29;20179;-89
2021/04/01 03:56:26;;;;;;;28.33;17.27;;;17.40;66.10;;;;;;4938878;29;20267;-88
2021/04/01 03:59:12;;;;;;;32.70;17.13;;;17.30;66.60;;;;;;4940073;28;20183;-89
2021/04/01 04:04:23;;;;;;;31.90;17.80;;;17.30;65.90;;;;;;4937304;29;20180;-89
2021/04/01 04:14:46;;;;;;;26.67;17.20;;;17.30;65.70;;;;;;4939755;29;20190;-88
2021/04/01 04:17:11;;;;;;;32.97;18.30;;;17.40;66.80;;;;;;4921876;29;20188;-88
2021/04/01 04:19:37;;;;;;;29.60;18.87;;;17.30;66.00;;;;;;4921811;29;20197;-88
2021/04/01 04:22:03;;;;;;;38.73;19.77;;;17.20;65.90;;;;;;4939150;29;20441;-88
2021/04/01 04:24:33;;;;;;;35.80;18.77;;;17.40;65.00;;;;;;4939180;29;20186;-88
2021/04/01 04:27:11;;;;;;;36.93;20.53;;;17.50;65.00;;;;;;4936249;29;20187;-88
2021/04/01 04:29:37;;;;;;;34.37;19.67;;;17.50;65.10;;;;;;4936514;29;20282;-88
2021/04/01 04:32:03;;;;;;;33.80;18.97;;;17.40;65.10;;;;;;4921572;29;20207;-88
2021/04/01 04:34:28;;;;;;;33.73;18.63;;;17.30;65.20;;;;;;4920146;29;20179;-89
2021/04/01 04:36:54;;;;;;;33.40;19.27;;;17.30;66.00;;;;;;4937906;29;20255;-88
2021/04/01 04:39:19;;;;;;;31.57;18.57;;;17.30;65.70;;;;;;4938663;29;20222;-88
2021/04/01 04:41:45;;;;;;;32.83;18.70;;;17.30;66.00;;;;;;4922747;29;20210;-87
2021/04/01 04:44:11;;;;;;;34.50;19.03;;;17.40;65.60;;;;;;4920083;29;20207;-88
2021/04/01 04:46:36;;;;;;;32.83;18.93;;;17.40;65.70;;;;;;4934804;28;20675;-88
2021/04/01 04:49:03;;;;;;;36.10;18.87;;;17.30;66.20;;;;;;4938220;29;20179;-88
2021/04/01 04:51:28;;;;;;;33.63;18.33;;;17.20;66.80;;;;;;4938774;29;20234;-88
2021/04/01 04:53:54;;;;;;;37.60;19.63;;;17.40;65.90;;;;;;4930418;29;20207;-89
2021/04/01 04:56:24;;;;;;;34.93;18.90;;;17.40;65.60;;;;;;4927162;29;20560;-89
2021/04/01 04:59:03;;;;;;;33.57;18.10;;;17.20;65.80;;;;;;4938493;29;20179;-88
2021/04/01 05:06:59;;;;;;;35.67;19.47;;;17.00;68.20;;;;;;4953220;28;20250;-88
2021/04/01 05:09:25;;;;;;;34.70;19.40;;;17.00;68.20;;;;;;4937824;29;20267;-88
2021/04/01 05:11:51;;;;;;;35.33;18.57;;;16.90;68.40;;;;;;4923822;29;20282;-88
2021/04/01 05:14:17;;;;;;;35.47;19.30;;;16.90;68.80;;;;;;4929843;29;20246;-88
2021/04/01 05:16:44;;;;;;;31.47;18.20;;;16.70;68.70;;;;;;4926191;29;20672;-86
2021/04/01 05:19:10;;;;;;;32.07;19.63;;;16.70;68.90;;;;;;4921182;29;20188;-89
2021/04/01 05:21:48;;;;;;;34.83;18.27;;;16.70;69.20;;;;;;4925216;29;20240;-87
2021/04/01 05:24:16;;;;;;;33.60;19.00;;;16.70;68.90;;;;;;4923907;29;20679;-88
2021/04/01 05:29:14;;;;;;;35.70;18.93;;;16.80;68.30;;;;;;4945448;29;20188;-88
2021/04/01 05:31:41;;;;;;;37.03;19.37;;;16.60;69.00;;;;;;4931479;29;20246;-92
2021/04/01 05:34:07;;;;;;;36.57;20.20;;;16.70;69.10;;;;;;4942371;29;20284;-88
2021/04/01 05:36:38;;;;;;;33.57;19.07;;;16.70;68.80;;;;;;4931709;29;20192;-89
2021/04/01 05:39:06;;;;;;;30.87;18.57;;;16.60;70.00;;;;;;4935701;29;20191;-91
2021/04/01 05:41:40;;;;;;;40.37;20.03;;;16.70;69.50;;;;;;4946008;28;20183;-88
2021/04/01 05:44:19;;;;;;;33.30;18.23;;;16.80;70.10;;;;;;4957771;28;20295;-90
2021/04/01 05:47:15;;;;;;;34.87;20.50;;;17.10;68.60;;;;;;4961604;28;20177;-90
2021/04/01 05:58:03;;;;;;;43.13;20.83;;;16.80;68.60;;;;;;4955302;28;20238;-89
2021/04/01 06:06:13;;;;;;;33.03;19.37;;;16.70;70.10;;;;;;4958926;29;20221;-88
2021/04/01 06:08:49;;;;;;;34.47;19.43;;;16.50;70.30;;;;;;4941357;29;20570;-88
2021/04/01 06:11:18;;;;;;;37.70;19.37;;;16.60;71.00;;;;;;4941649;29;20691;-88
2021/04/01 06:16:39;;;;;;;48.83;19.90;;;16.50;70.90;;;;;;4959490;28;20287;-88
2021/04/01 06:19:08;;;;;;;42.87;19.03;;;16.70;69.70;;;;;;4937441;29;20179;-89
2021/04/01 06:21:43;;;;;;;48.03;21.27;;;16.70;70.70;;;;;;4939726;29;20196;-89
2021/04/01 06:24:22;;;;;;;49.70;21.03;;;16.70;70.70;;;;;;4941604;29;20226;-88
2021/04/01 06:27:03;;;;;;;43.17;19.93;;;17.10;67.80;;;;;;4941553;29;20260;-88
2021/04/01 06:29:31;;;;;;;41.97;21.83;;;17.40;66.40;;;;;;4939978;29;20213;-88
2021/04/01 06:32:02;;;;;;;45.50;21.43;;;17.50;66.50;;;;;;4941539;29;20571;-88
2021/04/01 06:34:35;;;;;;;38.77;21.77;;;17.50;66.00;;;;;;4945581;29;20177;-88
2021/04/01 06:37:03;;;;;;;43.47;22.47;;;17.70;65.60;;;;;;4949641;28;20188;-87
2021/04/01 06:39:32;;;;;;;44.83;22.03;;;17.60;65.40;;;;;;4947104;29;20208;-90
2021/04/01 06:42:21;;;;;;;43.70;22.00;;;17.60;65.70;;;;;;4940312;29;20232;-88
2021/04/01 06:44:54;;;;;;;48.10;22.23;;;17.40;68.00;;;;;;4939018;29;20209;-91
2021/04/01 06:47:27;;;;;;;43.17;22.00;;;17.40;68.60;;;;;;4941106;29;20182;-88
2021/04/01 06:49:59;;;;;;;44.23;22.03;;;17.60;67.00;;;;;;4940554;29;20298;-88
2021/04/01 06:52:33;;;;;;;52.73;23.37;;;17.60;66.30;;;;;;4940235;29;20194;-88
2021/04/01 06:55:17;;;;;;;54.60;24.23;;;17.70;65.80;;;;;;4938634;29;20216;-88
2021/04/01 07:03:21;;;;;;;56.20;25.53;;;17.70;64.40;;;;;;4967326;28;20167;-88
2021/04/01 07:11:35;;;;;;;52.13;26.67;;;18.00;63.40;;;;;;4957638;28;20230;-88
2021/04/01 07:14:13;;;;;;;47.87;24.80;;;17.90;64.50;;;;;;4943788;29;20211;-88
2021/04/01 07:36:01;;;;;;;83.27;33.03;;;18.20;61.30;;;;;;4951803;28;20315;-89
2021/04/01 07:46:57;;;;;;;67.53;34.10;;;18.60;58.90;;;;;;4959789;29;20246;-88
2021/04/01 07:49:27;;;;;;;67.77;35.00;;;18.80;57.30;;;;;;4959731;29;20247;-91
2021/04/01 07:51:59;;;;;;;66.57;34.63;;;18.90;57.50;;;;;;4943206;29;20644;-89
2021/04/01 07:54:34;;;;;;;70.43;36.00;;;19.00;57.00;;;;;;4944732;29;20635;-90
2021/04/01 07:57:40;;;;;;;63.20;35.93;;;19.10;56.30;;;;;;4942767;29;20176;-88
2021/04/01 08:00:08;;;;;;;68.73;36.73;;;19.20;56.30;;;;;;4958915;28;20195;-90
2021/04/01 08:05:14;;;;;;;64.83;35.83;;;19.50;56.10;;;;;;4965074;28;20180;-89
2021/04/01 08:07:49;;;;;;;76.60;37.73;;;19.50;56.00;;;;;;4947493;29;20228;-92
2021/04/01 08:10:17;;;;;;;81.17;38.20;;;19.70;55.50;;;;;;4948153;29;20233;-91
2021/04/01 08:12:50;;;;;;;75.30;37.77;;;19.90;55.20;;;;;;4947753;29;20192;-89
2021/04/01 08:15:24;;;;;;;77.83;37.73;;;20.20;55.20;;;;;;4944125;29;20286;-89
2021/04/01 08:18:05;;;;;;;73.77;39.90;;;20.20;54.40;;;;;;4946131;29;20185;-88
2021/04/01 08:20:34;;;;;;;72.73;40.13;;;20.50;53.30;;;;;;4944294;29;20223;-89
2021/04/01 08:23:10;;;;;;;70.97;38.00;;;20.40;53.50;;;;;;4943486;29;20174;-88
2021/04/01 08:26:00;;;;;;;77.57;38.10;;;20.30;54.00;;;;;;4942139;29;20197;-88
2021/04/01 08:33:53;;;;;;;80.77;40.80;;;20.70;53.60;;;;;;4959881;28;20198;-88
2021/04/01 08:36:25;;;;;;;81.60;40.03;;;20.90;52.80;;;;;;4942799;28;20269;-89
2021/04/01 08:38:51;;;;;;;85.43;41.47;;;20.90;53.00;;;;;;4941988;29;20709;-89
2021/04/01 08:41:22;;;;;;;81.00;40.83;;;21.10;52.70;;;;;;4942428;29;20225;-88
2021/04/01 08:44:09;;;;;;;82.47;41.30;;;21.10;53.20;;;;;;4941446;29;20230;-88
2021/04/01 08:47:02;;;;;;;88.57;41.57;;;21.00;52.50;;;;;;4925391;29;20204;-89
2021/04/01 08:50:17;;;;;;;92.67;42.87;;;20.90;52.40;;;;;;4893547;29;20225;-88
2021/04/01 08:53:07;;;;;;;99.03;42.07;;;20.90;52.40;;;;;;4955925;28;20201;-89
2021/04/01 08:56:21;;;;;;;87.90;41.33;;;20.90;52.80;;;;;;4942423;28;20234;-88
2021/04/01 08:58:55;;;;;;;83.97;39.50;;;21.00;51.60;;;;;;4924899;29;20194;-88
2021/04/01 09:01:21;;;;;;;75.33;37.67;;;21.00;51.20;;;;;;4942995;29;20230;-88
2021/04/01 09:03:49;;;;;;;91.87;38.20;;;20.90;51.60;;;;;;4941625;29;20174;-89
2021/04/01 09:06:19;;;;;;;83.40;36.27;;;21.10;51.50;;;;;;4941114;29;20227;-88
2021/04/01 09:08:54;;;;;;;85.40;37.90;;;21.10;52.30;;;;;;4942438;29;20205;-89
2021/04/01 09:11:34;;;;;;;81.87;36.87;;;21.20;51.90;;;;;;4939816;28;20590;-88
2021/04/01 09:14:00;;;;;;;91.33;38.03;;;21.30;52.40;;;;;;4942145;29;20183;-88
2021/04/01 09:16:30;;;;;;;83.07;37.97;;;21.40;52.00;;;;;;4943610;29;20190;-88
2021/04/01 09:19:04;;;;;;;77.10;37.83;;;21.60;51.30;;;;;;4944475;29;20235;-89
2021/04/01 09:21:35;;;;;;;81.57;37.30;;;21.50;52.20;;;;;;4947616;29;20253;-88
2021/04/01 09:24:02;;;;;;;72.97;36.10;;;21.50;53.20;;;;;;4947260;29;20189;-89
2021/04/01 09:26:27;;;;;;;72.67;36.97;;;21.40;53.50;;;;;;4945336;29;20178;-89
2021/04/01 09:29:06;;;;;;;67.43;36.40;;;21.40;53.80;;;;;;4938014;29;20178;-89
2021/04/01 09:31:43;;;;;;;71.47;36.30;;;21.40;52.50;;;;;;4935235;29;20246;-89
2021/04/01 09:34:12;;;;;;;74.33;38.10;;;21.40;53.00;;;;;;4941641;28;20178;-89
2021/04/01 09:36:43;;;;;;;71.33;37.67;;;21.50;52.70;;;;;;4942705;29;20190;-88
2021/04/01 09:41:51;;;;;;;78.17;37.03;;;21.80;53.30;;;;;;4958370;28;20288;-88
2021/04/01 09:44:18;;;;;;;69.10;37.50;;;21.90;53.30;;;;;;4932530;29;20191;-89
2021/04/01 09:46:53;;;;;;;72.53;36.10;;;21.80;53.20;;;;;;4942653;28;20283;-88
2021/04/01 09:49:21;;;;;;;65.60;35.27;;;21.90;53.30;;;;;;4942269;29;20645;-88
2021/04/01 09:51:53;;;;;;;80.27;36.60;;;21.90;53.40;;;;;;4926958;29;20231;-89
2021/04/01 09:54:19;;;;;;;69.73;35.57;;;22.00;53.50;;;;;;4942929;29;20255;-89
2021/04/01 09:56:59;;;;;;;67.40;35.17;;;22.10;53.10;;;;;;4939563;29;20187;-89
2021/04/01 09:59:47;;;;;;;67.67;34.37;;;22.20;52.80;;;;;;4938127;28;20657;-89
2021/04/01 10:02:30;;;;;;;69.90;34.73;;;22.30;53.10;;;;;;4938618;29;20190;-89
2021/04/01 10:05:06;;;;;;;68.17;36.67;;;22.40;52.70;;;;;;4937784;29;20175;-89
2021/04/01 10:07:33;;;;;;;65.33;33.97;;;22.70;52.50;;;;;;4940843;28;20221;-90
2021/04/01 10:09:59;;;;;;;57.37;33.33;;;22.70;52.00;;;;;;4942735;29;20250;-88
2021/04/01 10:12:43;;;;;;;66.10;35.17;;;22.80;51.30;;;;;;4944246;28;20612;-93
2021/04/01 10:15:12;;;;;;;65.40;34.10;;;22.90;51.00;;;;;;4943285;29;20187;-88
2021/04/01 10:17:40;;;;;;;64.50;32.73;;;22.80;50.90;;;;;;4952036;29;20183;-88
2021/04/01 10:51:08;;;;;;;52.67;29.73;;;24.20;49.30;;;;;;5981094;23;20178;-88
2021/04/01 10:53:41;;;;;;;67.40;30.83;;;24.40;49.20;;;;;;4941193;29;20201;-88
2021/04/01 11:39:36;;;;;;;31.52;19.25;;;31.90;41.00;;;;;;5270954;23;20217;-92
2021/04/01 11:53:11;;;;;;;38.20;19.42;;;33.20;40.00;;;;;;5407798;23;20234;-92
2021/04/01 11:55:52;;;;;;;34.13;18.45;;;33.80;39.10;;;;;;4940735;29;20541;-93
2021/04/01 11:58:32;;;;;;;;;;;;;;;;;;;;;
2021/04/01 12:01:10;;;;;;;38.00;19.92;;;33.50;39.60;;;;;;4958620;29;20261;-92
2021/04/01 12:06:32;;;;;;;;;;;;;;;;;;;;;
2021/04/01 12:09:43;;;;;;;42.13;22.85;;;33.90;39.10;;;;;;4939230;29;20203;-93
2021/04/01 12:12:22;;;;;;;;;;;;;;;;;;;;;
2021/04/01 12:14:53;;;;;;;43.05;24.88;;;34.60;38.80;;;;;;4923830;29;20176;-92
2021/04/01 12:17:30;;;;;;;50.55;28.77;;;34.30;39.20;;;;;;4919906;29;20238;-92
2021/04/01 12:20:03;;;;;;;48.92;28.35;;;34.50;39.10;;;;;;4921241;29;20198;-92
2021/04/01 12:22:31;;;;;;;52.38;30.45;;;34.70;38.60;;;;;;4918033;29;20570;-92
2021/04/01 12:24:58;;;;;;;48.95;30.45;;;35.00;38.10;;;;;;4927139;29;20184;-92
2021/04/01 12:27:29;;;;;;;56.85;32.05;;;35.10;38.40;;;;;;4919482;29;20191;-92
2021/04/01 12:30:00;;;;;;;60.80;33.67;;;35.00;38.70;;;;;;4922018;29;20247;-92
2021/04/01 12:32:33;;;;;;;57.15;35.75;;;35.40;38.30;;;;;;4932537;29;20275;-93
2021/04/01 12:35:06;;;;;;;60.95;36.72;;;35.50;38.30;;;;;;4938545;29;20263;-94
2021/04/01 12:37:33;;;;;;;58.25;36.78;;;35.40;38.00;;;;;;4921190;29;20180;-96
2021/04/01 12:40:26;;;;;;;63.50;36.90;;;35.30;38.00;;;;;;4935299;29;20668;-94
2021/04/01 12:43:04;;;;;;;62.92;38.30;;;35.40;37.60;;;;;;4902842;29;20200;-94
2021/04/01 12:48:17;;;;;;;63.13;39.05;;;35.10;38.10;;;;;;4956431;29;20553;-95
2021/04/01 12:50:51;;;;;;;63.10;38.10;;;35.30;37.50;;;;;;4941213;29;20223;-94
2021/04/01 12:53:33;;;;;;;55.83;37.22;;;35.20;37.40;;;;;;4920183;29;20196;-92
2021/04/01 12:56:11;;;;;;;59.75;36.60;;;35.40;37.10;;;;;;4918846;29;20542;-91
2021/04/01 13:11:03;;;;;;;62.95;40.58;;;36.00;36.20;;;;;;4910764;29;20288;-90
2021/04/01 13:13:29;;;;;;;64.05;39.85;;;36.00;36.00;;;;;;4897056;29;20184;-94
2021/04/01 13:15:54;;;;;;;69.05;44.00;;;35.80;36.20;;;;;;4900840;29;20184;-93
2021/04/01 13:18:32;;;;;;;66.70;43.08;;;35.90;36.00;;;;;;4919410;29;20257;-92
2021/04/01 13:20:58;;;;;;;63.20;43.50;;;35.80;36.40;;;;;;4906595;29;20717;-91
2021/04/01 13:23:32;;;;;;;65.75;45.00;;;35.50;36.30;;;;;;4916083;29;20532;-92
2021/04/01 13:26:02;;;;;;;62.97;42.58;;;35.60;36.10;;;;;;4896914;29;20653;-93
2021/04/01 13:28:28;;;;;;;63.13;44.72;;;35.60;36.50;;;;;;4912938;29;20180;-93
2021/04/01 13:31:00;;;;;;;62.97;43.25;;;35.70;36.00;;;;;;4920270;29;20243;-91
2021/04/01 13:33:55;;;;;;;65.47;44.60;;;35.70;36.40;;;;;;4919762;29;20203;-92
2021/04/01 13:36:37;;;;;;;68.05;44.42;;;35.70;36.50;;;;;;4936710;29;20222;-90
2021/04/01 13:39:06;;;;;;;61.63;41.85;;;35.70;36.70;;;;;;4921305;29;20255;-93
2021/04/01 13:42:01;;;;;;;53.47;39.90;;;35.90;35.80;;;;;;4922804;29;20188;-92
2021/04/01 13:44:32;;;;;;;58.38;37.53;;;35.80;35.70;;;;;;4922538;29;20259;-89
2021/04/01 13:46:58;;;;;;;53.35;40.05;;;35.60;35.80;;;;;;4923378;29;20188;-91
2021/04/01 13:49:28;;;;;;;50.13;36.42;;;35.40;35.90;;;;;;4923274;29;20671;-92
2021/04/01 13:52:13;;;;;;;51.58;35.88;;;35.30;36.50;;;;;;4922068;29;20235;-92
2021/04/01 13:57:24;;;;;;;53.90;35.85;;;35.60;36.60;;;;;;4939045;29;20196;-91
2021/04/01 14:00:14;;;;;;;51.67;33.65;;;35.80;36.40;;;;;;4914587;29;20184;-91
2021/04/01 14:11:58;;;;;;;33.17;22.52;;;36.00;35.80;;;;;;4943656;29;20744;-93
2021/04/01 14:14:26;;;;;;;35.63;22.00;;;36.40;35.00;;;;;;4938844;29;20232;-92
2021/04/01 14:16:56;;;;;;;35.33;22.25;;;36.20;35.10;;;;;;4923020;29;20180;-92
2021/04/01 14:19:24;;;;;;;33.20;20.15;;;36.20;35.50;;;;;;4921815;29;20190;-92
2021/04/01 14:21:52;;;;;;;28.73;19.13;;;35.80;35.20;;;;;;4936907;29;20654;-91
2021/04/01 14:24:27;;;;;;;32.13;18.52;;;35.70;35.50;;;;;;4920749;29;20258;-92
2021/04/01 14:29:28;;;;;;;30.42;17.98;;;35.40;35.60;;;;;;4938906;29;20191;-91
2021/04/01 14:31:57;;;;;;;29.13;16.65;;;35.40;35.70;;;;;;4922287;29;20250;-91
2021/04/01 14:34:25;;;;;;;24.98;14.55;;;35.20;35.30;;;;;;4922234;29;20204;-91
2021/04/01 14:36:56;;;;;;;28.20;14.57;;;35.00;35.00;;;;;;4917136;29;20259;-91
2021/04/01 14:39:28;;;;;;;27.13;15.00;;;35.00;34.90;;;;;;4922326;29;20187;-92
2021/04/01 14:41:58;;;;;;;26.55;14.82;;;35.20;35.20;;;;;;4921099;29;20204;-91
2021/04/01 14:44:25;;;;;;;23.70;14.00;;;35.00;35.20;;;;;;4920198;29;20252;-91
2021/04/01 14:46:51;;;;;;;22.13;13.45;;;34.70;35.20;;;;;;4947492;29;20183;-91
2021/04/01 14:49:18;;;;;;;24.80;14.18;;;34.20;36.20;;;;;;4923949;29;20179;-91
2021/04/01 14:51:45;;;;;;;26.67;13.35;;;34.00;35.90;;;;;;4921478;29;20227;-92
2021/04/01 14:54:13;;;;;;;27.95;13.32;;;34.10;35.60;;;;;;4937362;29;20180;-91
2021/04/01 14:56:55;;;;;;;26.17;12.15;;;33.70;35.00;;;;;;4921403;29;20180;-92
2021/04/01 14:59:28;;;;;;;23.80;13.02;;;33.70;35.60;;;;;;4921040;29;20190;-91
2021/04/01 15:01:55;;;;;;;22.30;12.68;;;33.90;36.00;;;;;;4921411;29;20299;-92
2021/04/01 15:04:21;;;;;;;18.85;11.13;;;34.00;35.60;;;;;;4921744;29;20235;-90
2021/04/01 15:06:54;;;;;;;17.23;10.50;;;34.00;35.30;;;;;;4921879;29;20180;-91
2021/04/01 15:09:20;;;;;;;21.42;10.70;;;34.10;34.80;;;;;;4920783;29;20272;-92
2021/04/01 15:11:47;;;;;;;20.55;9.32;;;33.90;34.80;;;;;;4920937;29;20239;-92
2021/04/01 15:14:16;;;;;;;18.80;9.35;;;33.50;35.00;;;;;;4921637;29;20594;-92
2021/04/01 15:17:00;;;;;;;21.48;10.52;;;33.40;35.00;;;;;;4921418;29;20619;-91
2021/04/01 15:19:37;;;;;;;17.92;10.23;;;33.30;35.00;;;;;;4920874;29;20187;-91
2021/04/01 15:22:06;;;;;;;17.10;9.40;;;33.30;35.50;;;;;;4921300;29;20195;-92
2021/04/01 15:24:38;;;;;;;15.75;8.73;;;33.30;36.30;;;;;;4914029;29;20208;-91
2021/04/01 15:27:07;;;;;;;18.58;8.18;;;33.10;36.60;;;;;;4921240;29;20183;-92
2021/04/01 15:30:35;;;;;;;17.98;8.25;;;33.10;36.80;;;;;;4921416;29;20187;-93
2021/04/01 15:37:02;;;;;;;20.80;7.75;;;33.00;36.90;;;;;;4937998;29;20214;-93
2021/04/01 15:40:09;;;;;;;19.52;8.18;;;32.50;37.60;;;;;;4921374;29;20183;-93
2021/04/01 15:52:20;;;;;;;22.55;6.15;;;32.60;38.00;;;;;;5589762;23;20235;-87
2021/04/01 15:54:47;;;;;;;14.85;6.60;;;32.70;38.20;;;;;;4933642;29;20207;-86
2021/04/01 19:46:45;;;;;;;17.37;5.33;;;17.50;56.10;;;;;;5763822;23;20242;-92
2021/04/01 19:49:13;;;;;;;21.40;4.93;;;17.50;56.00;;;;;;4903737;29;20197;-91
2021/04/01 19:51:44;;;;;;;15.57;4.70;;;17.30;56.60;;;;;;4903428;29;20219;-91
2021/04/01 19:54:10;;;;;;;13.07;5.13;;;17.30;56.50;;;;;;4919513;29;20212;-91
2021/04/01 19:56:36;;;;;;;14.43;4.70;;;17.30;56.50;;;;;;4904563;29;20192;-91
2021/04/01 19:59:09;;;;;;;21.47;5.27;;;17.30;56.30;;;;;;4903717;29;20644;-92
2021/04/01 20:01:36;;;;;;;21.77;5.40;;;17.30;56.20;;;;;;4913066;29;20748;-91
2021/04/01 20:04:03;;;;;;;21.53;5.93;;;17.20;56.30;;;;;;4905142;29;20180;-91
2021/04/01 20:06:29;;;;;;;15.07;4.80;;;17.00;56.90;;;;;;4909840;29;20201;-89
2021/04/01 20:08:57;;;;;;;18.37;5.03;;;16.90;57.10;;;;;;4898435;29;20216;-91
2021/04/01 20:11:25;;;;;;;19.30;5.27;;;16.70;57.50;;;;;;4915608;29;20204;-91
2021/04/01 20:13:50;;;;;;;23.17;5.57;;;16.80;57.50;;;;;;4902628;29;20278;-91
2021/04/01 20:16:17;;;;;;;19.77;4.83;;;16.70;57.90;;;;;;4902452;29;20224;-92